Minot International Airport Minot US
ICAO: KMOT
IATA: MOT
Category: Medium
Scheduled Services: Yes

Elevation: 1716 ft
TransAlt. 18000 ft.

Airport Communications:
APP:119.6
CTAF:118.2
DEP:119.6
GND:121.9
GRAND FORKS RDO:122.2
MAGIC CITY TWR:118.2
UNICOM:122.95

KMOT Zoom In..

Runways:

(A) RW 08 length 6351 ft width 100 ft
---- / hdg 80

(B) RW 13 length 7700 ft width 150 ft
---- / hdg 128

(C) RW 26 length 6351 ft width 100 ft
---- / hdg 260

(D) RW 31 length 7700 ft width 150 ft
ILS 111.90 / hdg 308

Location; KMOT
Day. 23 / Time. 02.54 Zulu
* Altimeter: 30.09
* Temperature: 19° c. 66.2°f.
* Wind from: 300° Speed 07 kn.
Dewpoint: 11° c.
Visibility: 10 Statute Miles.
Clouds: Clear (automated report).

KMOT 230254Z 30007KT 10SM CLR 19/11 A3009 RMK AO2 SLP186 T01890106 51018


Wind From 300°
Speed 07 kn.

 
 
jpsmedia.com for Web Design worldairports.se 2018   terms of use